createdAt,value
2019-06-10T00:02:30.927Z,2.12
2019-06-10T00:05:05.978Z,1.72
2019-06-10T00:07:40.939Z,2.20
2019-06-10T00:10:13.947Z,1.95
2019-06-10T00:12:45.901Z,1.60
2019-06-10T00:15:18.039Z,1.87
2019-06-10T00:17:59.300Z,1.70
2019-06-10T00:20:23.644Z,2.08
2019-06-10T00:22:57.339Z,1.37
2019-06-10T00:25:31.422Z,1.60
2019-06-10T00:28:06.103Z,1.57
2019-06-10T00:30:40.872Z,1.90
2019-06-10T00:33:12.839Z,2.00
2019-06-10T00:35:44.896Z,1.95
2019-06-10T00:38:16.873Z,5.03
2019-06-10T00:40:51.137Z,4.15
2019-06-10T00:43:23.281Z,3.02
2019-06-10T00:45:55.204Z,3.15
2019-06-10T00:48:29.344Z,3.15
2019-06-10T00:51:02.552Z,3.90
2019-06-10T00:53:34.507Z,3.62
2019-06-10T00:56:07.282Z,3.20
2019-06-10T00:58:40.841Z,2.37
2019-06-10T01:01:14.650Z,2.27
2019-06-10T01:03:47.058Z,1.70
2019-06-10T01:06:21.404Z,2.10
2019-06-10T01:08:53.065Z,1.95
2019-06-10T01:11:27.129Z,2.22
2019-06-10T01:14:01.293Z,2.52
2019-06-10T01:16:32.737Z,2.27
2019-06-10T01:19:05.764Z,2.20
2019-06-10T01:21:41.436Z,2.20
2019-06-10T01:24:14.851Z,2.52
2019-06-10T01:26:46.907Z,2.02
2019-06-10T01:29:20.981Z,2.17
2019-06-10T01:31:52.610Z,2.50
2019-06-10T01:34:24.574Z,2.50
2019-06-10T01:36:56.607Z,2.50
2019-06-10T01:39:30.892Z,2.50
2019-06-10T01:42:04.113Z,2.12
2019-06-10T01:44:36.111Z,2.20
2019-06-10T01:47:08.719Z,2.83
2019-06-10T01:49:41.285Z,2.27
2019-06-10T01:52:15.118Z,2.00
2019-06-10T01:54:47.640Z,1.90
2019-06-10T01:57:21.970Z,2.10
2019-06-10T01:59:53.407Z,2.20
2019-06-10T02:02:26.034Z,2.12
2019-06-10T02:04:58.019Z,1.85
2019-06-10T02:07:31.948Z,1.92
2019-06-10T02:10:03.770Z,2.00
2019-06-10T02:12:35.765Z,2.30
2019-06-10T02:15:10.087Z,2.25
2019-06-10T02:17:42.726Z,2.35
2019-06-10T02:20:16.893Z,2.35
2019-06-10T02:22:48.533Z,2.40
2019-06-10T02:25:22.997Z,2.30
2019-06-10T02:27:55.137Z,2.50
2019-06-10T02:30:40.318Z,2.33
2019-06-10T02:33:02.657Z,2.50
2019-06-10T02:35:44.042Z,2.37
2019-06-10T02:38:09.542Z,2.40
2019-06-10T02:40:43.206Z,2.33
2019-06-10T02:43:20.785Z,2.27
2019-06-10T02:45:53.294Z,2.25
2019-06-10T02:48:30.299Z,2.25
2019-06-10T02:51:07.693Z,2.50
2019-06-10T02:53:43.070Z,2.72
2019-06-10T02:56:14.915Z,2.62
2019-06-10T02:58:47.220Z,2.22
2019-06-10T03:01:21.592Z,2.20
2019-06-10T03:03:54.236Z,2.45
2019-06-10T03:06:34.687Z,2.35
2019-06-10T03:09:03.443Z,2.47
2019-06-10T03:11:37.129Z,2.30
2019-06-10T03:14:10.396Z,1.80
2019-06-10T03:16:47.141Z,2.70
2019-06-10T03:19:37.008Z,2.37
2019-06-10T03:21:53.059Z,2.08
2019-06-10T03:24:25.418Z,2.33
2019-06-10T03:26:57.525Z,2.42
2019-06-10T03:29:29.577Z,2.42
2019-06-10T03:32:05.130Z,2.52
2019-06-10T03:34:41.619Z,2.30
2019-06-10T03:37:09.257Z,3.00
2019-06-10T03:39:42.663Z,3.25
2019-06-10T03:42:15.170Z,2.30
2019-06-10T03:44:47.556Z,2.40
2019-06-10T03:47:21.793Z,2.10
2019-06-10T03:49:56.208Z,3.05
2019-06-10T03:52:28.816Z,2.55
2019-06-10T03:55:03.007Z,2.50
2019-06-10T03:57:34.454Z,2.12
2019-06-10T04:00:13.287Z,1.98
2019-06-10T04:02:43.083Z,2.17
2019-06-10T04:05:14.685Z,2.20
2019-06-10T04:07:46.678Z,2.30
2019-06-10T04:10:19.588Z,2.52
2019-06-10T04:12:52.398Z,2.12
2019-06-10T04:15:26.563Z,2.33
2019-06-10T04:17:58.353Z,2.65
2019-06-10T04:20:30.461Z,2.60
2019-06-10T04:23:03.385Z,2.35
2019-06-10T04:25:36.864Z,2.42
2019-06-10T04:28:09.222Z,2.60
2019-06-10T04:30:43.241Z,2.70
2019-06-10T04:33:14.927Z,2.67
2019-06-10T04:35:47.034Z,2.52
2019-06-10T04:38:20.306Z,2.90
2019-06-10T04:40:53.948Z,2.55
2019-06-10T04:43:26.361Z,2.67
2019-06-10T04:46:02.077Z,2.50
2019-06-10T04:48:33.136Z,2.50
2019-06-10T04:51:06.877Z,2.87
2019-06-10T04:53:40.385Z,2.52
2019-06-10T04:56:12.591Z,2.72
2019-06-10T04:58:44.633Z,3.00
2019-06-10T05:01:16.550Z,3.05
2019-06-10T05:03:48.890Z,2.87
2019-06-10T05:06:21.752Z,2.70
2019-06-10T05:08:54.448Z,2.33
2019-06-10T05:11:27.384Z,2.85
2019-06-10T05:14:02.520Z,2.55
2019-06-10T05:16:35.962Z,2.40
2019-06-10T05:19:07.456Z,2.27
2019-06-10T05:21:42.161Z,2.47
2019-06-10T05:24:13.390Z,2.17
2019-06-10T05:26:45.531Z,2.80
2019-06-10T05:29:22.948Z,2.60
2019-06-10T05:31:54.136Z,2.52
2019-06-10T05:34:27.198Z,2.22
2019-06-10T05:37:02.679Z,2.70
2019-06-10T05:39:35.051Z,2.72
2019-06-10T05:42:08.340Z,2.50
2019-06-10T05:44:40.384Z,2.30
2019-06-10T05:47:12.763Z,2.30
2019-06-10T05:49:45.179Z,1.87
2019-06-10T05:52:17.159Z,2.02
2019-06-10T05:54:49.225Z,2.10
2019-06-10T05:57:23.047Z,1.90
2019-06-10T05:59:55.101Z,1.95
2019-06-10T06:02:27.771Z,2.00
2019-06-10T06:05:02.424Z,1.80
2019-06-10T06:07:35.541Z,2.20
2019-06-10T06:10:08.333Z,1.92
2019-06-10T06:12:42.466Z,2.67
2019-06-10T06:15:14.651Z,2.50
2019-06-10T06:17:46.715Z,2.25
2019-06-10T06:20:19.091Z,2.20
2019-06-10T06:22:52.233Z,2.40
2019-06-10T06:25:24.514Z,1.90
2019-06-10T06:27:56.535Z,2.30
2019-06-10T06:30:30.147Z,2.17
2019-06-10T06:33:04.379Z,2.40
2019-06-10T06:35:42.717Z,2.20
2019-06-10T06:38:10.197Z,2.40
2019-06-10T06:40:43.511Z,2.80
2019-06-10T06:43:15.963Z,3.12
2019-06-10T06:45:47.928Z,2.87
2019-06-10T06:48:22.598Z,3.15
2019-06-10T06:51:04.448Z,3.10
2019-06-10T06:53:33.336Z,3.02
2019-06-10T06:56:03.539Z,2.67
2019-06-10T06:58:37.050Z,2.17
2019-06-10T07:01:10.880Z,2.50
2019-06-10T07:03:45.147Z,2.55
2019-06-10T07:06:17.938Z,2.37
2019-06-10T07:09:03.778Z,2.52
2019-06-10T07:11:26.544Z,2.37
2019-06-10T07:14:03.824Z,2.45
2019-06-10T07:16:38.990Z,2.42
2019-06-10T07:19:13.305Z,2.55
2019-06-10T07:22:05.296Z,2.75
2019-06-10T07:24:19.693Z,3.58
2019-06-10T07:26:54.937Z,2.70
2019-06-10T07:29:26.978Z,2.60
2019-06-10T07:31:58.923Z,2.17
2019-06-10T07:34:33.905Z,2.45
2019-06-10T07:37:04.752Z,2.75
2019-06-10T07:39:38.009Z,2.90
2019-06-10T07:42:10.340Z,2.37
2019-06-10T07:44:43.991Z,2.33
2019-06-10T07:47:15.998Z,2.67
2019-06-10T07:49:49.449Z,2.20
2019-06-10T07:52:23.565Z,2.65
2019-06-10T07:54:55.133Z,2.17
2019-06-10T07:57:27.102Z,2.00
2019-06-10T07:59:59.204Z,2.30
2019-06-10T08:02:32.391Z,2.50
2019-06-10T08:05:07.770Z,2.10
2019-06-10T08:07:41.467Z,1.95
2019-06-10T08:10:13.753Z,2.20
2019-06-10T08:12:46.939Z,2.27
2019-06-10T08:15:19.439Z,1.85
2019-06-10T08:17:53.098Z,2.00
2019-06-10T08:20:47.677Z,2.10
2019-06-10T08:23:23.331Z,2.22
2019-06-10T08:25:57.851Z,2.00
2019-06-10T08:28:29.253Z,1.92
2019-06-10T08:31:03.406Z,1.82
2019-06-10T08:33:35.078Z,2.15
2019-06-10T08:36:07.144Z,1.85
2019-06-10T08:38:40.290Z,1.90
2019-06-10T08:41:12.437Z,2.00
2019-06-10T08:43:45.559Z,2.15
2019-06-10T08:46:18.095Z,2.15
2019-06-10T08:48:52.340Z,2.12
2019-06-10T08:51:23.975Z,2.47
2019-06-10T08:53:55.887Z,2.10
2019-06-10T08:56:27.989Z,2.12
2019-06-10T08:58:59.899Z,1.92
2019-06-10T09:01:33.485Z,2.40
2019-06-10T09:04:06.814Z,2.92
2019-06-10T09:06:43.214Z,1.92
2019-06-10T09:09:24.358Z,2.42
2019-06-10T09:12:04.704Z,2.40
2019-06-10T09:14:53.220Z,2.12
2019-06-10T09:17:44.373Z,2.20
2019-06-10T09:20:27.965Z,1.92
2019-06-10T09:23:21.556Z,2.30
2019-06-10T09:25:54.489Z,2.20
2019-06-10T09:28:24.971Z,2.52
2019-06-10T09:30:59.148Z,2.65
2019-06-10T09:33:33.161Z,2.50
2019-06-10T09:36:06.786Z,2.62
2019-06-10T09:38:40.622Z,2.45
2019-06-10T09:41:14.148Z,2.25
2019-06-10T09:43:50.019Z,2.20
2019-06-10T09:46:23.400Z,2.67
2019-06-10T09:48:58.573Z,2.33
2019-06-10T09:51:32.389Z,2.17
2019-06-10T09:54:08.757Z,1.90
2019-06-10T09:56:43.765Z,1.72
2019-06-10T09:59:17.266Z,1.87
2019-06-10T10:01:57.566Z,1.92
2019-06-10T10:04:25.949Z,1.92
2019-06-10T10:06:58.310Z,1.90
2019-06-10T10:09:33.658Z,1.57
2019-06-10T10:12:05.382Z,1.50
2019-06-10T10:14:37.316Z,1.47
2019-06-10T10:17:09.389Z,1.35
2019-06-10T10:19:45.429Z,1.70
2019-06-10T10:22:16.607Z,1.22
2019-06-10T10:24:49.332Z,1.17
2019-06-10T10:27:23.348Z,1.50
2019-06-10T10:29:57.277Z,1.35
2019-06-10T10:32:28.941Z,1.27
2019-06-10T10:35:03.705Z,1.30
2019-06-10T10:37:34.883Z,1.20
2019-06-10T10:40:07.146Z,1.30
2019-06-10T10:42:44.911Z,1.45
2019-06-10T10:45:13.863Z,1.20
2019-06-10T10:47:46.937Z,1.40
2019-06-10T10:50:22.379Z,1.42
2019-06-10T10:52:53.930Z,1.20
2019-06-10T10:55:26.034Z,1.20
2019-06-10T10:57:58.122Z,1.35
2019-06-10T11:00:44.793Z,1.10
2019-06-10T11:03:16.208Z,1.40
2019-06-10T11:05:50.343Z,1.70
2019-06-10T11:08:22.857Z,1.20
2019-06-10T11:10:59.477Z,1.10
2019-06-10T11:13:33.319Z,1.12
2019-06-10T11:16:05.236Z,0.90
2019-06-10T11:18:37.253Z,0.95
2019-06-10T11:21:09.215Z,1.05
2019-06-10T11:23:43.547Z,1.17
2019-06-10T11:26:15.503Z,1.30
2019-06-10T11:28:47.936Z,1.10
2019-06-10T11:31:22.778Z,1.30
2019-06-10T11:33:57.890Z,1.27
2019-06-10T11:36:30.445Z,1.50
2019-06-10T11:39:02.946Z,1.10
2019-06-10T11:41:36.926Z,1.30
2019-06-10T11:44:08.927Z,1.10
2019-06-10T11:46:42.998Z,1.40
2019-06-10T11:49:14.532Z,1.22
2019-06-10T11:51:47.136Z,0.98
2019-06-10T11:54:20.123Z,1.20
2019-06-10T11:56:56.474Z,1.00
2019-06-10T11:59:27.690Z,0.93
2019-06-10T12:02:05.016Z,1.30
2019-06-10T12:04:33.710Z,0.95
2019-06-10T12:07:06.615Z,1.20
2019-06-10T12:09:38.848Z,1.22
2019-06-10T12:12:12.970Z,0.90
2019-06-10T12:14:46.037Z,1.02
2019-06-10T12:17:40.133Z,1.55
2019-06-10T12:19:55.529Z,1.12
2019-06-10T12:22:25.314Z,1.20
2019-06-10T12:25:21.020Z,1.22
2019-06-10T12:27:32.832Z,1.50
2019-06-10T12:30:05.643Z,1.17
2019-06-10T12:32:37.639Z,1.07
2019-06-10T12:35:13.534Z,1.10
2019-06-10T12:37:44.900Z,1.22
2019-06-10T12:40:18.025Z,1.20
2019-06-10T12:42:52.485Z,1.40
2019-06-10T12:45:23.855Z,1.30
2019-06-10T12:47:58.346Z,1.27
2019-06-10T12:50:30.220Z,1.50
2019-06-10T12:53:06.913Z,1.47
2019-06-10T12:55:43.075Z,1.60
2019-06-10T12:58:13.031Z,2.05
2019-06-10T13:00:46.715Z,2.12
2019-06-10T13:03:18.751Z,1.92
2019-06-10T13:05:53.139Z,1.98
2019-06-10T13:08:28.536Z,1.72
2019-06-10T13:11:01.932Z,1.65
2019-06-10T13:13:34.300Z,1.90
2019-06-10T13:16:10.125Z,1.75
2019-06-10T13:18:42.053Z,1.37
2019-06-10T13:21:17.562Z,1.42
2019-06-10T13:23:49.748Z,1.55
2019-06-10T13:26:23.195Z,1.57
2019-06-10T13:28:56.896Z,1.60
2019-06-10T13:31:32.965Z,1.40
2019-06-10T13:34:09.060Z,1.85
2019-06-10T13:36:38.140Z,1.52
2019-06-10T13:39:13.352Z,1.98
2019-06-10T13:41:44.969Z,1.17
2019-06-10T13:44:16.944Z,1.40
2019-06-10T13:46:48.976Z,1.25
2019-06-10T13:49:25.236Z,1.10
2019-06-10T13:51:54.547Z,1.12
2019-06-10T13:54:33.414Z,1.30
2019-06-10T13:57:17.782Z,1.40
2019-06-10T13:59:54.169Z,1.02
2019-06-10T14:02:28.582Z,1.25
2019-06-10T14:05:10.291Z,1.20
2019-06-10T14:07:45.357Z,1.30
2019-06-10T14:10:19.384Z,1.40
2019-06-10T14:12:52.608Z,1.20
2019-06-10T14:15:24.872Z,1.27
2019-06-10T14:17:57.044Z,1.15
2019-06-10T14:20:29.180Z,1.00
2019-06-10T14:23:02.502Z,1.52
2019-06-10T14:25:34.846Z,1.40
2019-06-10T14:28:09.042Z,1.02
2019-06-10T14:30:43.089Z,1.40
2019-06-10T14:33:16.711Z,1.40
2019-06-10T14:35:48.932Z,1.40
2019-06-10T14:38:22.139Z,1.10
2019-06-10T14:40:54.653Z,1.00
2019-06-10T14:43:27.476Z,1.80
2019-06-10T14:45:59.489Z,1.10
2019-06-10T14:48:33.743Z,1.25
2019-06-10T14:51:07.025Z,0.90
2019-06-10T14:53:39.543Z,0.82
2019-06-10T14:56:14.855Z,0.72
2019-06-10T14:58:45.737Z,1.17
2019-06-10T15:01:24.536Z,1.00
2019-06-10T15:03:52.357Z,0.88
2019-06-10T15:06:25.780Z,1.10
2019-06-10T15:08:58.349Z,1.82
2019-06-10T15:11:32.192Z,0.90
2019-06-10T15:14:04.351Z,0.80
2019-06-10T15:16:36.297Z,0.93
2019-06-10T15:19:16.407Z,1.10
2019-06-10T15:21:42.900Z,0.90
2019-06-10T15:24:16.313Z,0.93
2019-06-10T15:26:48.673Z,1.00
2019-06-10T15:29:20.761Z,1.02
2019-06-10T15:32:08.460Z,1.10
2019-06-10T15:34:26.727Z,0.90
2019-06-10T15:36:59.198Z,0.95
2019-06-10T15:39:33.299Z,1.15
2019-06-10T15:42:05.026Z,2.00
2019-06-10T15:44:48.717Z,0.90
2019-06-10T15:47:21.106Z,0.85
2019-06-10T15:49:52.614Z,0.80
2019-06-10T15:52:25.248Z,0.68
2019-06-10T15:54:57.313Z,0.70
2019-06-10T15:57:39.193Z,0.78
2019-06-10T16:00:11.155Z,0.70
2019-06-10T16:02:38.865Z,1.00
2019-06-10T16:05:13.686Z,1.00
2019-06-10T16:07:44.704Z,0.80
2019-06-10T16:10:20.920Z,0.68
2019-06-10T16:12:52.801Z,0.82
2019-06-10T16:15:26.537Z,0.80
2019-06-10T16:17:58.354Z,0.85
2019-06-10T16:20:32.418Z,0.78
2019-06-10T16:23:04.703Z,0.80
2019-06-10T16:25:36.667Z,1.05
2019-06-10T16:28:08.602Z,0.90
2019-06-10T16:30:42.776Z,0.82
2019-06-10T16:33:14.849Z,0.60
2019-06-10T16:35:46.884Z,0.88
2019-06-10T16:38:22.381Z,0.80
2019-06-10T16:40:53.998Z,0.80
2019-06-10T16:43:27.679Z,1.07
2019-06-10T16:45:59.910Z,0.88
2019-06-10T16:48:33.398Z,0.85
2019-06-10T16:51:06.365Z,1.30
2019-06-10T16:53:38.318Z,0.80
2019-06-10T16:56:12.166Z,0.80
2019-06-10T16:58:43.908Z,0.50
2019-06-10T17:01:15.851Z,0.90
2019-06-10T17:03:47.848Z,0.60
2019-06-10T17:06:22.044Z,0.80
2019-06-10T17:08:54.596Z,0.47
2019-06-10T17:11:28.768Z,0.60
2019-06-10T17:14:00.224Z,0.93
2019-06-10T17:16:35.382Z,0.62
2019-06-10T17:19:07.378Z,0.60
2019-06-10T17:21:39.448Z,0.60
2019-06-10T17:24:13.089Z,0.65
2019-06-10T17:26:46.120Z,0.70
2019-06-10T17:29:19.271Z,0.70
2019-06-10T17:31:53.114Z,1.00
2019-06-10T17:34:26.396Z,0.60
2019-06-10T17:36:58.879Z,0.50
2019-06-10T17:39:32.058Z,0.70
2019-06-10T17:42:04.605Z,0.90
2019-06-10T17:44:36.622Z,0.62
2019-06-10T17:47:08.711Z,0.82
2019-06-10T17:49:41.955Z,0.60
2019-06-10T17:52:15.580Z,0.70
2019-06-10T17:54:47.648Z,0.72
2019-06-10T17:57:20.020Z,0.70
2019-06-10T17:59:52.465Z,0.65
2019-06-10T18:02:25.849Z,0.72
2019-06-10T18:04:58.110Z,0.80
2019-06-10T18:07:30.086Z,0.70
2019-06-10T18:10:02.921Z,0.60
2019-06-10T18:12:37.273Z,0.62
2019-06-10T18:15:12.590Z,0.70
2019-06-10T18:17:43.802Z,0.62
2019-06-10T18:20:16.364Z,0.80
2019-06-10T18:22:48.489Z,0.82
2019-06-10T18:25:22.763Z,0.82
2019-06-10T18:27:54.278Z,0.70
2019-06-10T18:30:27.401Z,0.85
2019-06-10T18:32:59.378Z,0.80
2019-06-10T18:35:34.137Z,0.70
2019-06-10T18:38:05.351Z,0.95
2019-06-10T18:40:37.385Z,0.90
2019-06-10T18:43:09.353Z,0.90
2019-06-10T18:45:41.282Z,1.02
2019-06-10T18:48:13.214Z,0.85
2019-06-10T18:50:45.154Z,0.80
2019-06-10T18:53:17.078Z,0.70
2019-06-10T18:55:51.512Z,1.07
2019-06-10T18:58:23.248Z,0.98
2019-06-10T19:01:03.641Z,0.90
2019-06-10T19:03:28.827Z,0.95
2019-06-10T19:06:02.375Z,1.05
2019-06-10T19:08:36.027Z,0.60
2019-06-10T19:11:08.552Z,1.20
2019-06-10T19:13:43.315Z,1.02
2019-06-10T19:16:14.203Z,1.00
2019-06-10T19:18:46.155Z,1.20
2019-06-10T19:21:18.075Z,0.90
2019-06-10T19:23:50.144Z,1.12
2019-06-10T19:26:22.222Z,0.95
2019-06-10T19:28:57.310Z,1.00
2019-06-10T19:31:27.947Z,1.00
2019-06-10T19:34:03.225Z,1.47
2019-06-10T19:36:33.682Z,0.98
2019-06-10T19:39:08.534Z,1.10
2019-06-10T19:41:45.016Z,1.35
2019-06-10T19:44:14.147Z,0.80
2019-06-10T19:46:46.160Z,1.10
2019-06-10T19:49:18.176Z,0.80
2019-06-10T19:51:52.458Z,1.42
2019-06-10T19:54:23.819Z,1.40
2019-06-10T19:56:56.054Z,1.40
2019-06-10T19:59:28.032Z,0.90
2019-06-10T20:02:00.178Z,1.07
2019-06-10T20:04:33.422Z,1.35
2019-06-10T20:07:06.537Z,1.40
2019-06-10T20:09:41.974Z,1.00
2019-06-10T20:12:12.539Z,1.40
2019-06-10T20:14:46.734Z,1.10
2019-06-10T20:17:19.325Z,1.20
2019-06-10T20:19:51.318Z,1.17
2019-06-10T20:22:23.293Z,0.95
2019-06-10T20:24:55.313Z,1.00
2019-06-10T20:27:27.768Z,1.10
2019-06-10T20:30:10.197Z,0.90
2019-06-10T20:32:35.368Z,0.90
2019-06-10T20:35:07.661Z,0.80
2019-06-10T20:37:39.736Z,0.95
2019-06-10T20:40:12.558Z,1.32
2019-06-10T20:42:44.592Z,0.82
2019-06-10T20:45:16.996Z,0.90
2019-06-10T20:47:50.084Z,0.78
2019-06-10T20:50:23.269Z,0.88
2019-06-10T20:53:10.713Z,1.10
2019-06-10T20:55:40.656Z,0.88
2019-06-10T20:58:07.104Z,0.93
2019-06-10T21:00:45.665Z,0.75
2019-06-10T21:03:12.515Z,0.85
2019-06-10T21:05:47.800Z,0.80
2019-06-10T21:08:22.681Z,0.78
2019-06-10T21:10:55.263Z,0.72
2019-06-10T21:13:27.292Z,0.90
2019-06-10T21:15:59.422Z,0.95
2019-06-10T21:18:32.938Z,0.90
2019-06-10T21:21:07.358Z,1.00
2019-06-10T21:23:44.998Z,0.90
2019-06-10T21:26:17.310Z,1.10
2019-06-10T21:28:51.290Z,1.00
2019-06-10T21:31:24.912Z,1.20
2019-06-10T21:33:56.913Z,1.10
2019-06-10T21:36:28.960Z,1.10
2019-06-10T21:39:02.749Z,1.22
2019-06-10T21:41:36.309Z,1.17
2019-06-10T21:44:13.051Z,1.32
2019-06-10T21:46:45.713Z,1.22
2019-06-10T21:49:17.602Z,1.02
2019-06-10T21:51:55.505Z,1.20
2019-06-10T21:54:25.298Z,1.30
2019-06-10T21:56:57.454Z,1.40
2019-06-10T21:59:29.390Z,1.20
2019-06-10T22:02:02.335Z,1.17
2019-06-10T22:04:34.608Z,1.20
2019-06-10T22:07:08.236Z,1.20
2019-06-10T22:09:42.540Z,2.50
2019-06-10T22:12:15.508Z,1.80
2019-06-10T22:14:48.328Z,1.15
2019-06-10T22:17:20.540Z,1.27
2019-06-10T22:19:53.615Z,1.40
2019-06-10T22:22:26.137Z,1.00
2019-06-10T22:24:59.748Z,1.37
2019-06-10T22:27:32.669Z,1.40
2019-06-10T22:30:11.288Z,1.32
2019-06-10T22:32:42.944Z,1.35
2019-06-10T22:35:14.464Z,1.50
2019-06-10T22:37:47.767Z,1.25
2019-06-10T22:40:19.754Z,1.20
2019-06-10T22:42:53.459Z,1.35
2019-06-10T22:45:25.556Z,1.82
2019-06-10T22:47:58.459Z,1.10
2019-06-10T22:50:32.607Z,1.20
2019-06-10T22:53:04.576Z,1.65
2019-06-10T22:55:36.839Z,1.20
2019-06-10T22:58:09.117Z,1.45
2019-06-10T23:00:43.532Z,1.40
2019-06-10T23:03:14.826Z,1.35
2019-06-10T23:05:48.396Z,1.17
2019-06-10T23:08:22.824Z,1.20
2019-06-10T23:10:56.297Z,1.32
2019-06-10T23:13:29.299Z,1.40
2019-06-10T23:16:02.572Z,1.87
2019-06-10T23:18:34.943Z,1.50
2019-06-10T23:21:06.918Z,1.47
2019-06-10T23:23:38.903Z,1.98
2019-06-10T23:26:12.961Z,1.62
2019-06-10T23:28:44.583Z,1.30
2019-06-10T23:31:18.386Z,1.35
2019-06-10T23:33:53.472Z,1.22
2019-06-10T23:36:24.591Z,1.15
2019-06-10T23:38:57.084Z,1.42
2019-06-10T23:41:32.851Z,1.92
2019-06-10T23:44:06.271Z,1.55
2019-06-10T23:46:38.235Z,1.50
2019-06-10T23:49:12.260Z,1.55
2019-06-10T23:51:44.190Z,1.72
2019-06-10T23:54:16.131Z,1.40
2019-06-10T23:56:50.056Z,1.12
2019-06-10T23:59:22.615Z,1.77
